PWSweather.com
Personal Weather Stations
Station Observations
PENICUIKWS
PenicuikGB

PenicuikGB

Lat: 55.830932, Lon: -3.224533000000065

Elevation: 166

Station Type: Fine Offset

http://weather.penicuik.org

Latest ConditionsUpdated 10:15:00 PM GMT Thursday, Jul 18, 2019
Currently Today's Max Today's Min Today's Average
Temperature 54.7°F12.6°C 72.5°F22.5°C 51.1°F10.6°C 62.0°F16.7°C
Dew Point 50.9°F10.5°C 56.0°F13.3°C 49.7°F9.8°C 52.2°F11.2°C
Winds 0.8 mph NNW1.3 kmh NNW 5.6 mph -9.0 kmh - - 3.0 mph 4.8 kmh
Wind Gusts 1.6 mph2.6 kmh 9.8 mph15.8 kmh - -
Humidity 87% 98% 48% 72%
Pressure 29.75 in1007.5 mb 29.75 in1007.5 mb 29.65 in1004.1 mb -
Precipitation - 0.01 in0.3 mm - -
Hour Temp Dew Point Humidity Winds Wind Gusts Pressure Precip Precip Rate Daily Precip Total
10:15 PM 54.7°F12.6°C 50.9°F10.5°C 87% 0.8 mph NNW1.3 kmh NNW 1.6 mph2.6 kmh 29.75 in1007.5 mb 0.00 in0.0 mm 0.00 in0.0 mm 0.01 in0.3 mm
10:00 PM 55.4°F13.0°C 51.3°F10.7°C 86% 1.1 mph NW1.8 kmh NW 4.5 mph7.2 kmh 29.75 in1007.5 mb 0.00 in0.0 mm 0.00 in0.0 mm 0.01 in0.3 mm
09:45 PM 56.1°F13.4°C 51.7°F10.9°C 85% 1.4 mph NNW2.3 kmh NNW 2.2 mph3.5 kmh 29.74 in1007.1 mb 0.00 in0.0 mm 0.00 in0.0 mm 0.01 in0.3 mm
09:31 PM 55.9°F13.3°C 51.5°F10.8°C 85% 1.7 mph WSW2.7 kmh WSW 3.1 mph5.0 kmh 29.74 in1007.1 mb 0.00 in0.0 mm 0.00 in0.0 mm 0.01 in0.3 mm
09:30 PM 55.9°F13.3°C 51.5°F10.8°C 85% 1.7 mph WSW2.7 kmh WSW 3.1 mph5.0 kmh 29.75 in1007.5 mb 0.00 in0.0 mm 0.00 in0.0 mm 0.01 in0.3 mm
09:15 PM 55.8°F13.2°C 51.0°F10.6°C 84% 1.2 mph NW1.9 kmh NW 2.2 mph3.5 kmh 29.74 in1007.1 mb 0.00 in0.0 mm 0.00 in0.0 mm 0.01 in0.3 mm
09:00 PM 55.9°F13.3°C 50.5°F10.3°C 82% 1.0 mph NNW1.6 kmh NNW 2.2 mph3.5 kmh 29.73 in1006.8 mb 0.00 in0.0 mm 0.00 in0.0 mm 0.01 in0.3 mm
08:45 PM 56.7°F13.7°C 50.6°F10.3°C 80% 1.4 mph NW2.3 kmh NW 1.6 mph2.6 kmh 29.74 in1007.1 mb 0.00 in0.0 mm 0.00 in0.0 mm 0.01 in0.3 mm
08:30 PM 57.4°F14.1°C 49.9°F9.9°C 76% 1.7 mph SSE2.7 kmh SSE 3.8 mph6.1 kmh 29.73 in1006.8 mb 0.00 in0.0 mm 0.00 in0.0 mm 0.01 in0.3 mm
08:15 PM 58.6°F14.8°C 50.8°F10.4°C 75% 1.2 mph NW1.9 kmh NW 2.2 mph3.5 kmh 29.73 in1006.8 mb 0.00 in0.0 mm 0.00 in0.0 mm 0.01 in0.3 mm
08:01 PM 59.4°F15.2°C 50.3°F10.2°C 72% 1.9 mph NNW3.1 kmh NNW 3.8 mph6.1 kmh 29.73 in1006.8 mb 0.00 in0.0 mm 0.00 in0.0 mm 0.01 in0.3 mm
08:00 PM 59.4°F15.2°C 50.3°F10.2°C 72% 2.3 mph N3.7 kmh N 3.8 mph6.1 kmh 29.73 in1006.8 mb 0.00 in0.0 mm 0.00 in0.0 mm 0.01 in0.3 mm
07:45 PM 59.9°F15.5°C 50.5°F10.3°C 71% 1.5 mph SW2.4 kmh SW 2.2 mph3.5 kmh 29.73 in1006.8 mb 0.00 in0.0 mm 0.00 in0.0 mm 0.01 in0.3 mm
07:30 PM 61.0°F16.1°C 50.8°F10.4°C 69% 2.2 mph NW3.5 kmh NW 3.1 mph5.0 kmh 29.72 in1006.4 mb 0.00 in0.0 mm 0.00 in0.0 mm 0.01 in0.3 mm
07:16 PM 61.0°F16.1°C 50.0°F10.0°C 67% 3.7 mph NE6.0 kmh NE 6.0 mph9.7 kmh 29.72 in1006.4 mb 0.00 in0.0 mm 0.00 in0.0 mm 0.01 in0.3 mm
07:15 PM 61.0°F16.1°C 50.0°F10.0°C 67% 3.6 mph NE5.8 kmh NE 6.0 mph9.7 kmh 29.71 in1006.1 mb 0.00 in0.0 mm 0.00 in0.0 mm 0.01 in0.3 mm
07:00 PM 62.1°F16.7°C 51.0°F10.6°C 67% 2.8 mph SSE4.5 kmh SSE 3.1 mph5.0 kmh 29.71 in1006.1 mb 0.00 in0.0 mm 0.00 in0.0 mm 0.01 in0.3 mm
06:45 PM 62.1°F16.7°C 49.8°F9.9°C 64% 4.5 mph SW7.2 kmh SW 6.9 mph11.1 kmh 29.72 in1006.4 mb 0.00 in0.0 mm 0.00 in0.0 mm 0.01 in0.3 mm
06:30 PM 62.8°F17.1°C 50.0°F10.0°C 63% 3.2 mph WSW5.1 kmh WSW 3.8 mph6.1 kmh 29.70 in1005.8 mb 0.00 in0.0 mm 0.00 in0.0 mm 0.01 in0.3 mm
06:15 PM 63.0°F17.2°C 49.8°F9.9°C 62% 2.9 mph N4.7 kmh N 3.8 mph6.1 kmh 29.70 in1005.8 mb 0.00 in0.0 mm 0.00 in0.0 mm 0.01 in0.3 mm
06:00 PM 63.7°F17.6°C 50.4°F10.2°C 62% 3.9 mph S6.3 kmh S 8.3 mph13.4 kmh 29.70 in1005.8 mb 0.00 in0.0 mm 0.00 in0.0 mm 0.01 in0.3 mm
05:45 PM 64.4°F18.0°C 51.1°F10.6°C 62% 4.2 mph S6.8 kmh S 4.5 mph7.2 kmh 29.70 in1005.8 mb 0.00 in0.0 mm 0.00 in0.0 mm 0.01 in0.3 mm
05:30 PM 64.9°F18.3°C 51.6°F10.9°C 62% 3.2 mph SSW5.1 kmh SSW 6.9 mph11.1 kmh 29.70 in1005.8 mb 0.00 in0.0 mm 0.00 in0.0 mm 0.01 in0.3 mm
05:15 PM 65.1°F18.4°C 51.4°F10.8°C 61% 2.7 mph ESE4.3 kmh ESE 5.4 mph8.7 kmh 29.69 in1005.4 mb 0.00 in0.0 mm 0.00 in0.0 mm 0.01 in0.3 mm
05:00 PM 64.9°F18.3°C 50.7°F10.4°C 60% 4.2 mph SSE6.8 kmh SSE 6.0 mph9.7 kmh 29.68 in1005.1 mb 0.00 in0.0 mm 0.00 in0.0 mm 0.01 in0.3 mm
04:45 PM 66.6°F19.2°C 50.4°F10.2°C 56% 4.9 mph SSW7.9 kmh SSW 6.9 mph11.1 kmh 29.69 in1005.4 mb 0.00 in0.0 mm 0.00 in0.0 mm 0.01 in0.3 mm
04:30 PM 67.6°F19.8°C 51.4°F10.8°C 56% 3.9 mph WNW6.3 kmh WNW 9.2 mph14.8 kmh 29.68 in1005.1 mb 0.00 in0.0 mm 0.00 in0.0 mm 0.01 in0.3 mm
04:15 PM 67.6°F19.8°C 50.9°F10.5°C 55% 4.1 mph SSE6.6 kmh SSE 6.9 mph11.1 kmh 29.68 in1005.1 mb 0.00 in0.0 mm 0.00 in0.0 mm 0.01 in0.3 mm
04:00 PM 68.0°F20.0°C 50.3°F10.2°C 53% 4.6 mph WNW7.4 kmh WNW 7.6 mph12.2 kmh 29.68 in1005.1 mb 0.00 in0.0 mm 0.00 in0.0 mm 0.01 in0.3 mm
03:45 PM 68.9°F20.5°C 50.6°F10.3°C 52% 4.4 mph N7.1 kmh N 9.8 mph15.8 kmh 29.68 in1005.1 mb 0.00 in0.0 mm 0.00 in0.0 mm 0.01 in0.3 mm
03:30 PM 70.0°F21.1°C 51.0°F10.6°C 51% 5.5 mph SE8.9 kmh SE 9.2 mph14.8 kmh 29.68 in1005.1 mb 0.00 in0.0 mm 0.00 in0.0 mm 0.01 in0.3 mm
03:15 PM 71.8°F22.1°C 51.1°F10.6°C 48% 4.3 mph NNE6.9 kmh NNE 9.2 mph14.8 kmh 29.68 in1005.1 mb 0.00 in0.0 mm 0.00 in0.0 mm 0.01 in0.3 mm
03:00 PM 70.2°F21.2°C 51.2°F10.7°C 51% 5.3 mph SSW8.5 kmh SSW 7.6 mph12.2 kmh 29.68 in1005.1 mb 0.00 in0.0 mm 0.00 in0.0 mm 0.01 in0.3 mm
02:45 PM 71.2°F21.8°C 51.7°F10.9°C 50% 3.7 mph S6.0 kmh S 6.9 mph11.1 kmh 29.68 in1005.1 mb 0.00 in0.0 mm 0.00 in0.0 mm 0.01 in0.3 mm
02:30 PM 69.8°F21.0°C 52.9°F11.6°C 55% 5.6 mph NNW9.0 kmh NNW 9.2 mph14.8 kmh 29.68 in1005.1 mb 0.00 in0.0 mm 0.00 in0.0 mm 0.01 in0.3 mm
02:15 PM 70.3°F21.3°C 51.4°F10.8°C 51% 3.7 mph WSW6.0 kmh WSW 5.4 mph8.7 kmh 29.68 in1005.1 mb 0.00 in0.0 mm 0.00 in0.0 mm 0.01 in0.3 mm
02:00 PM 70.0°F21.1°C 52.6°F11.4°C 54% 3.5 mph SE5.6 kmh SE 5.4 mph8.7 kmh 29.67 in1004.7 mb 0.00 in0.0 mm 0.00 in0.0 mm 0.01 in0.3 mm
01:45 PM 69.8°F21.0°C 50.9°F10.5°C 51% 3.5 mph SSE5.6 kmh SSE 5.4 mph8.7 kmh 29.67 in1004.7 mb 0.00 in0.0 mm 0.00 in0.0 mm 0.01 in0.3 mm
01:30 PM 72.1°F22.3°C 52.5°F11.4°C 50% 4.5 mph WSW7.2 kmh WSW 9.2 mph14.8 kmh 29.67 in1004.7 mb 0.00 in0.0 mm 0.00 in0.0 mm 0.01 in0.3 mm
01:15 PM 71.4°F21.9°C 52.9°F11.6°C 52% 5.4 mph W8.7 kmh W 9.2 mph14.8 kmh 29.67 in1004.7 mb 0.00 in0.0 mm 0.00 in0.0 mm 0.01 in0.3 mm
01:00 PM 69.8°F21.0°C 51.9°F11.1°C 53% 4.3 mph WSW6.9 kmh WSW 6.9 mph11.1 kmh 29.68 in1005.1 mb 0.00 in0.0 mm 0.00 in0.0 mm 0.01 in0.3 mm
12:45 PM 68.0°F20.0°C 50.8°F10.4°C 54% 5.3 mph S8.5 kmh S 9.8 mph15.8 kmh 29.67 in1004.7 mb 0.00 in0.0 mm 0.00 in0.0 mm 0.01 in0.3 mm
12:30 PM 71.1°F21.7°C 52.0°F11.1°C 51% 5.3 mph SSE8.5 kmh SSE 6.9 mph11.1 kmh 29.68 in1005.1 mb 0.00 in0.0 mm 0.00 in0.0 mm 0.01 in0.3 mm
12:15 PM 71.6°F22.0°C 53.6°F12.0°C 53% 4.4 mph SW7.1 kmh SW 8.3 mph13.4 kmh 29.68 in1005.1 mb 0.00 in0.0 mm 0.00 in0.0 mm 0.01 in0.3 mm
12:00 PM 69.4°F20.8°C 53.1°F11.7°C 56% 4.3 mph W6.9 kmh W 8.3 mph13.4 kmh 29.67 in1004.7 mb 0.00 in0.0 mm 0.00 in0.0 mm 0.01 in0.3 mm
11:45 AM 69.8°F21.0°C 51.9°F11.1°C 53% 4.7 mph ENE7.6 kmh ENE 7.6 mph12.2 kmh 29.67 in1004.7 mb 0.00 in0.0 mm 0.00 in0.0 mm 0.01 in0.3 mm
11:30 AM 71.6°F22.0°C 52.0°F11.1°C 50% 5.1 mph SE8.2 kmh SE 8.3 mph13.4 kmh 29.67 in1004.7 mb 0.00 in0.0 mm 0.00 in0.0 mm 0.01 in0.3 mm
11:15 AM 72.5°F22.5°C 53.4°F11.9°C 51% 4.5 mph SW7.2 kmh SW 6.9 mph11.1 kmh 29.67 in1004.7 mb 0.00 in0.0 mm 0.00 in0.0 mm 0.01 in0.3 mm
11:00 AM 72.0°F22.2°C 52.9°F11.6°C 51% 3.9 mph SSW6.3 kmh SSW 6.0 mph9.7 kmh 29.67 in1004.7 mb 0.00 in0.0 mm 0.00 in0.0 mm 0.01 in0.3 mm
10:45 AM 71.1°F21.7°C 53.1°F11.7°C 53% 4.4 mph W7.1 kmh W 7.6 mph12.2 kmh 29.67 in1004.7 mb 0.00 in0.0 mm 0.00 in0.0 mm 0.01 in0.3 mm
10:30 AM 68.9°F20.5°C 54.9°F12.7°C 61% 3.4 mph SSW5.5 kmh SSW 7.6 mph12.2 kmh 29.67 in1004.7 mb 0.00 in0.0 mm 0.00 in0.0 mm 0.01 in0.3 mm
10:15 AM 68.9°F20.5°C 54.9°F12.7°C 61% 3.5 mph S5.6 kmh S 6.0 mph9.7 kmh 29.66 in1004.4 mb 0.00 in0.0 mm 0.00 in0.0 mm 0.01 in0.3 mm
10:00 AM 69.4°F20.8°C 55.9°F13.3°C 62% 3.6 mph SSW5.8 kmh SSW 6.0 mph9.7 kmh 29.66 in1004.4 mb 0.00 in0.0 mm 0.00 in0.0 mm 0.01 in0.3 mm
09:45 AM 64.4°F18.0°C 55.2°F12.9°C 72% 3.9 mph W6.3 kmh W 6.9 mph11.1 kmh 29.66 in1004.4 mb 0.00 in0.0 mm 0.00 in0.0 mm 0.01 in0.3 mm
09:30 AM 61.5°F16.4°C 54.6°F12.6°C 78% 3.1 mph S5.0 kmh S 6.9 mph11.1 kmh 29.67 in1004.7 mb 0.00 in0.0 mm 0.00 in0.0 mm 0.01 in0.3 mm
09:15 AM 64.4°F18.0°C 55.2°F12.9°C 72% 4.3 mph N6.9 kmh N 7.6 mph12.2 kmh 29.68 in1005.1 mb 0.00 in0.0 mm 0.00 in0.0 mm 0.01 in0.3 mm
09:00 AM 68.2°F20.1°C 55.6°F13.1°C 64% 3.6 mph S5.8 kmh S 6.0 mph9.7 kmh 29.67 in1004.7 mb 0.00 in0.0 mm 0.00 in0.0 mm 0.01 in0.3 mm
08:45 AM 67.8°F19.9°C 53.5°F11.9°C 60% 4.8 mph SE7.7 kmh SE 7.6 mph12.2 kmh 29.67 in1004.7 mb 0.00 in0.0 mm 0.00 in0.0 mm 0.01 in0.3 mm
08:30 AM 70.5°F21.4°C 54.1°F12.3°C 56% 4.8 mph SE7.7 kmh SE 8.3 mph13.4 kmh 29.67 in1004.7 mb 0.00 in0.0 mm 0.00 in0.0 mm 0.01 in0.3 mm
08:15 AM 68.7°F20.4°C 55.2°F12.9°C 62% 3.9 mph NE6.3 kmh NE 5.4 mph8.7 kmh 29.67 in1004.7 mb 0.00 in0.0 mm 0.00 in0.0 mm 0.01 in0.3 mm
08:00 AM 63.9°F17.7°C 55.4°F13.0°C 74% 2.9 mph S4.7 kmh S 4.5 mph7.2 kmh 29.66 in1004.4 mb 0.00 in0.0 mm 0.00 in0.0 mm 0.01 in0.3 mm
07:45 AM 61.9°F16.6°C 53.1°F11.7°C 73% 3.1 mph S5.0 kmh S 4.5 mph7.2 kmh 29.67 in1004.7 mb 0.00 in0.0 mm 0.00 in0.0 mm 0.01 in0.3 mm
07:30 AM 62.2°F16.8°C 53.9°F12.2°C 74% 2.7 mph ESE4.3 kmh ESE 4.5 mph7.2 kmh 29.66 in1004.4 mb 0.00 in0.0 mm 0.00 in0.0 mm 0.01 in0.3 mm
07:15 AM 64.0°F17.8°C 54.1°F12.3°C 70% 3.6 mph NW5.8 kmh NW 6.0 mph9.7 kmh 29.67 in1004.7 mb 0.00 in0.0 mm 0.00 in0.0 mm 0.01 in0.3 mm
07:00 AM 63.1°F17.3°C 55.5°F13.1°C 76% 3.5 mph NNW5.6 kmh NNW 5.4 mph8.7 kmh 29.65 in1004.1 mb 0.00 in0.0 mm 0.00 in0.0 mm 0.01 in0.3 mm
06:45 AM 58.3°F14.6°C 54.4°F12.4°C 87% 2.0 mph NW3.2 kmh NW 3.8 mph6.1 kmh 29.66 in1004.4 mb 0.00 in0.0 mm 0.00 in0.0 mm 0.01 in0.3 mm
06:30 AM 57.7°F14.3°C 54.5°F12.5°C 89% 2.5 mph S4.0 kmh S 3.1 mph5.0 kmh 29.67 in1004.7 mb 0.00 in0.0 mm 0.00 in0.0 mm 0.01 in0.3 mm
06:15 AM 57.0°F13.9°C 53.5°F11.9°C 88% 1.8 mph SW2.9 kmh SW 3.1 mph5.0 kmh 29.66 in1004.4 mb 0.00 in0.0 mm 0.00 in0.0 mm 0.01 in0.3 mm
06:00 AM 58.3°F14.6°C 52.5°F11.4°C 81% 2.9 mph SSE4.7 kmh SSE 3.8 mph6.1 kmh 29.66 in1004.4 mb 0.00 in0.0 mm 0.00 in0.0 mm 0.01 in0.3 mm
05:45 AM 62.8°F17.1°C 55.1°F12.8°C 76% 2.5 mph SW4.0 kmh SW 3.8 mph6.1 kmh 29.66 in1004.4 mb 0.00 in0.0 mm 0.00 in0.0 mm 0.01 in0.3 mm
05:30 AM 59.9°F15.5°C 56.0°F13.3°C 87% 2.5 mph S4.0 kmh S 3.8 mph6.1 kmh 29.66 in1004.4 mb 0.00 in0.0 mm 0.00 in0.0 mm 0.01 in0.3 mm
05:15 AM 56.5°F13.6°C 54.8°F12.7°C 94% 1.6 mph SW2.6 kmh SW 3.1 mph5.0 kmh 29.65 in1004.1 mb 0.00 in0.0 mm 0.00 in0.0 mm 0.01 in0.3 mm
05:00 AM 55.9°F13.3°C 54.8°F12.7°C 96% 1.5 mph SW2.4 kmh SW 2.2 mph3.5 kmh 29.66 in1004.4 mb 0.00 in0.0 mm 0.00 in0.0 mm 0.01 in0.3 mm
04:45 AM 53.2°F11.8°C 52.7°F11.5°C 98% 2.0 mph SE3.2 kmh SE 5.4 mph8.7 kmh 29.66 in1004.4 mb 0.00 in0.0 mm 0.00 in0.0 mm 0.01 in0.3 mm
04:30 AM 51.8°F11.0°C 51.0°F10.6°C 97% 1.7 mph N2.7 kmh N 5.4 mph8.7 kmh 29.65 in1004.1 mb 0.00 in0.0 mm 0.00 in0.0 mm 0.01 in0.3 mm
04:15 AM 51.4°F10.8°C 50.9°F10.5°C 98% 0.5 mph NW0.8 kmh NW 1.6 mph2.6 kmh 29.66 in1004.4 mb 0.00 in0.0 mm 0.00 in0.0 mm 0.01 in0.3 mm
04:00 AM 51.8°F11.0°C 50.7°F10.4°C 96% 0.9 mph NW1.4 kmh NW 2.2 mph3.5 kmh 29.66 in1004.4 mb 0.00 in0.0 mm 0.00 in0.0 mm 0.01 in0.3 mm
03:45 AM 51.3°F10.7°C 50.4°F10.2°C 97% 0.3 mph NW0.5 kmh NW 1.6 mph2.6 kmh 29.66 in1004.4 mb 0.00 in0.0 mm 0.00 in0.0 mm 0.01 in0.3 mm
03:30 AM 51.1°F10.6°C 50.0°F10.0°C 96% 0.3 mph WSW0.5 kmh WSW 1.6 mph2.6 kmh 29.66 in1004.4 mb 0.00 in0.0 mm 0.00 in0.0 mm 0.01 in0.3 mm
03:15 AM 51.1°F10.6°C 50.0°F10.0°C 96% 0.8 mph WSW1.3 kmh WSW 2.2 mph3.5 kmh 29.66 in1004.4 mb 0.00 in0.0 mm 0.00 in0.0 mm 0.01 in0.3 mm
03:00 AM 51.1°F10.6°C 49.7°F9.8°C 95% 0.8 mph NNW1.3 kmh NNW 1.6 mph2.6 kmh 29.66 in1004.4 mb 0.00 in0.0 mm 0.00 in0.0 mm 0.01 in0.3 mm
02:45 AM 51.4°F10.8°C 50.1°F10.1°C 95% 0.6 mph N1.0 kmh N 1.6 mph2.6 kmh 29.66 in1004.4 mb 0.00 in0.0 mm 0.00 in0.0 mm 0.01 in0.3 mm
02:30 AM 51.8°F11.0°C 49.8°F9.9°C 93% 1.5 mph NNE2.4 kmh NNE 3.1 mph5.0 kmh 29.66 in1004.4 mb 0.00 in0.0 mm 0.00 in0.0 mm 0.01 in0.3 mm
02:15 AM 52.2°F11.2°C 50.2°F10.1°C 93% 2.5 mph WNW4.0 kmh WNW 5.4 mph8.7 kmh 29.67 in1004.7 mb 0.00 in0.0 mm 0.00 in0.0 mm 0.01 in0.3 mm
02:00 AM 52.5°F11.4°C 50.3°F10.2°C 92% 1.9 mph WNW3.1 kmh WNW 3.1 mph5.0 kmh 29.67 in1004.7 mb 0.00 in0.0 mm 0.00 in0.0 mm 0.01 in0.3 mm
01:45 AM 53.1°F11.7°C 50.8°F10.4°C 92% 2.3 mph SW3.7 kmh SW 6.0 mph9.7 kmh 29.67 in1004.7 mb 0.00 in0.0 mm 0.00 in0.0 mm 0.01 in0.3 mm
01:30 AM 53.8°F12.1°C 50.9°F10.5°C 90% 2.3 mph NE3.7 kmh NE 3.8 mph6.1 kmh 29.67 in1004.7 mb 0.00 in0.0 mm 0.00 in0.0 mm 0.01 in0.3 mm
01:15 AM 54.5°F12.5°C 51.6°F10.9°C 90% 2.3 mph W3.7 kmh W 6.0 mph9.7 kmh 29.67 in1004.7 mb 0.00 in0.0 mm 0.00 in0.0 mm 0.01 in0.3 mm
01:00 AM 54.9°F12.7°C 52.3°F11.3°C 91% 2.6 mph S4.2 kmh S 6.0 mph9.7 kmh 29.67 in1004.7 mb 0.00 in0.0 mm 0.00 in0.0 mm 0.01 in0.3 mm
12:45 AM 55.4°F13.0°C 53.4°F11.9°C 93% 2.0 mph SW3.2 kmh SW 3.1 mph5.0 kmh 29.67 in1004.7 mb 0.00 in0.0 mm 0.00 in0.0 mm 0.01 in0.3 mm
12:30 AM 55.9°F13.3°C 54.2°F12.3°C 94% 2.7 mph NNE4.3 kmh NNE 4.5 mph7.2 kmh 29.66 in1004.4 mb 0.00 in0.0 mm 0.00 in0.0 mm 0.01 in0.3 mm
12:15 AM 56.7°F13.7°C 55.3°F12.9°C 95% 2.3 mph N3.7 kmh N 3.8 mph6.1 kmh 29.66 in1004.4 mb 0.00 in0.0 mm 0.00 in0.0 mm 0.01 in0.3 mm
12:00 AM 57.7°F14.3°C 56.0°F13.3°C 94% 2.3 mph S3.7 kmh S 4.5 mph7.2 kmh 29.65 in1004.1 mb 0.01 in0.3 mm 0.00 in0.0 mm 0.01 in0.3 mm